Time;durP1;ratioP1;P1;durP2;ratioP2;P2;SDS_P1;SDS_P2;PMS_P1;PMS_P2;Temp;Humidity;BMP_temperature;BMP_pressure;BME280_temperature;BME280_humidity;BME280_pressure;Samples;Min_cycle;Max_cycle;Signal;HPM_P1;HPM_P2
2022/06/18 00:01:36;;;;;;;8.20;7.40;;;19.70;99.00;;;;;;6253873;28;20244;-64
2022/06/18 00:04:39;;;;;;;8.27;7.50;;;19.70;98.70;;;;;;6271421;28;20224;-63
2022/06/18 00:07:46;;;;;;;7.97;7.37;;;19.70;98.80;;;;;;6275875;28;20307;-64
2022/06/18 00:10:54;;;;;;;8.20;7.60;;;19.70;98.60;;;;;;6279058;28;20224;-64
2022/06/18 00:13:58;;;;;;;6.90;6.50;;;19.70;98.60;;;;;;6278830;28;20233;-63
2022/06/18 00:17:01;;;;;;;7.63;7.00;;;19.60;98.80;;;;;;6278583;28;20227;-63
2022/06/18 00:20:05;;;;;;;8.00;7.30;;;19.50;98.60;;;;;;6270060;28;20245;-63
2022/06/18 00:23:15;;;;;;;8.53;7.83;;;19.50;98.80;;;;;;6266415;28;20236;-64
2022/06/18 00:26:19;;;;;;;7.87;7.30;;;19.50;98.40;;;;;;6266643;28;20230;-64
2022/06/18 00:29:23;;;;;;;9.10;7.60;;;19.30;98.90;;;;;;6263880;28;20231;-64
2022/06/18 00:32:27;;;;;;;7.27;6.67;;;19.30;98.80;;;;;;6261767;28;20231;-64
2022/06/18 00:35:30;;;;;;;7.93;7.13;;;19.10;98.90;;;;;;6267236;28;20219;-64
2022/06/18 00:38:38;;;;;;;7.70;7.00;;;19.10;99.20;;;;;;6264173;28;20224;-64
2022/06/18 00:41:42;;;;;;;7.37;6.77;;;19.00;99.30;;;;;;6263667;28;20236;-64
2022/06/18 00:44:53;;;;;;;6.83;6.30;;;19.00;99.90;;;;;;6266412;28;20244;-64
2022/06/18 00:48:03;;;;;;;7.00;6.43;;;18.90;99.30;;;;;;6258625;28;20247;-64
2022/06/18 00:51:14;;;;;;;7.47;6.77;;;18.90;99.30;;;;;;6266514;28;20575;-64
2022/06/18 00:54:23;;;;;;;6.70;6.00;;;18.90;99.20;;;;;;6263532;28;20248;-64
2022/06/18 00:57:31;;;;;;;6.80;6.40;;;18.90;99.10;;;;;;6252933;28;20231;-64
2022/06/18 01:00:39;;;;;;;6.90;6.40;;;18.90;99.10;;;;;;6252768;28;20240;-64
2022/06/18 01:03:43;;;;;;;7.23;6.63;;;18.90;99.20;;;;;;6252630;28;20228;-64
2022/06/18 01:06:46;;;;;;;6.50;6.10;;;18.90;99.20;;;;;;6252505;28;20278;-64
2022/06/18 01:09:51;;;;;;;6.33;5.83;;;18.90;99.10;;;;;;6252464;28;20224;-64
2022/06/18 01:12:56;;;;;;;7.03;6.43;;;18.90;99.00;;;;;;6252299;28;20233;-64
2022/06/18 01:16:00;;;;;;;6.90;6.40;;;18.80;99.00;;;;;;6252556;28;20553;-64
2022/06/18 01:19:09;;;;;;;7.07;6.47;;;18.70;99.10;;;;;;6252269;28;20236;-64
2022/06/18 01:22:26;;;;;;;6.57;6.07;;;18.80;99.30;;;;;;6252266;28;20233;-64
2022/06/18 01:25:32;;;;;;;6.47;5.97;;;18.70;99.30;;;;;;6277256;28;20534;-64
2022/06/18 01:28:35;;;;;;;6.70;6.17;;;18.70;99.30;;;;;;6277017;28;20208;-64
2022/06/18 01:31:39;;;;;;;6.90;6.40;;;18.60;99.20;;;;;;6276664;28;20568;-64
2022/06/18 01:34:43;;;;;;;6.87;6.23;;;18.60;99.20;;;;;;6276358;28;20593;-64
2022/06/18 01:37:46;;;;;;;6.90;6.33;;;18.50;99.10;;;;;;6276928;28;20224;-64
2022/06/18 01:40:56;;;;;;;6.13;5.73;;;18.50;99.30;;;;;;6276334;28;20590;-64
2022/06/18 01:44:03;;;;;;;6.83;6.13;;;18.50;99.10;;;;;;6276316;28;20231;-64
2022/06/18 01:47:12;;;;;;;6.10;5.53;;;18.40;99.30;;;;;;6276325;28;20227;-64
2022/06/18 01:50:21;;;;;;;6.33;5.93;;;18.40;99.40;;;;;;6276220;28;20358;-63
2022/06/18 01:53:27;;;;;;;6.27;5.87;;;18.20;99.40;;;;;;6276001;28;20470;-64
2022/06/18 01:56:35;;;;;;;6.97;6.37;;;18.10;99.90;;;;;;6275408;28;20784;-64
2022/06/18 01:59:43;;;;;;;6.80;6.30;;;18.00;99.90;;;;;;6276362;28;20793;-64
2022/06/18 02:02:46;;;;;;;5.93;5.43;;;17.90;99.90;;;;;;6275828;28;20949;-64
2022/06/18 02:05:50;;;;;;;7.70;7.10;;;17.80;99.90;;;;;;6275884;28;20251;-64
2022/06/18 02:08:53;;;;;;;7.00;6.50;;;17.70;99.90;;;;;;6271631;28;20462;-64
2022/06/18 02:12:00;;;;;;;7.03;6.43;;;17.80;99.90;;;;;;6275731;28;20690;-65
2022/06/18 02:15:05;;;;;;;6.17;5.77;;;17.80;99.90;;;;;;6275754;28;20800;-64
2022/06/18 02:18:11;;;;;;;7.03;6.43;;;17.90;99.90;;;;;;6275585;28;20482;-64
2022/06/18 02:21:16;;;;;;;6.27;5.87;;;17.80;99.90;;;;;;6275298;28;21010;-64
2022/06/18 02:24:20;;;;;;;6.30;5.80;;;17.90;99.90;;;;;;6275328;28;20950;-64
2022/06/18 02:27:25;;;;;;;6.93;6.33;;;17.80;99.90;;;;;;6275426;28;20466;-64
2022/06/18 02:30:32;;;;;;;7.10;6.50;;;17.80;99.90;;;;;;6275524;28;20469;-64
2022/06/18 02:33:40;;;;;;;6.90;6.40;;;17.70;99.90;;;;;;6275034;28;20475;-64
2022/06/18 02:36:43;;;;;;;6.60;6.10;;;17.60;99.90;;;;;;6275180;28;20470;-64
2022/06/18 02:39:56;;;;;;;6.37;5.77;;;17.60;99.90;;;;;;6275019;28;20488;-64
2022/06/18 02:43:01;;;;;;;6.97;6.30;;;17.60;99.90;;;;;;6275028;28;20790;-64
2022/06/18 02:46:05;;;;;;;6.67;6.17;;;17.70;99.90;;;;;;6274966;28;20466;-64
2022/06/18 02:49:12;;;;;;;7.27;6.73;;;17.70;99.90;;;;;;6274995;28;20571;-64
2022/06/18 02:52:15;;;;;;;7.07;6.47;;;17.70;99.90;;;;;;6274610;28;20477;-65
2022/06/18 02:55:27;;;;;;;6.43;5.93;;;17.70;99.90;;;;;;6274876;28;20454;-64
2022/06/18 02:58:34;;;;;;;6.90;5.93;;;17.70;99.90;;;;;;6274778;28;20427;-64
2022/06/18 03:01:37;;;;;;;7.40;6.80;;;17.70;99.90;;;;;;6274320;28;20453;-64
2022/06/18 03:04:41;;;;;;;6.77;6.27;;;17.70;99.90;;;;;;6274741;28;20458;-64
2022/06/18 03:07:44;;;;;;;7.37;6.73;;;17.70;99.90;;;;;;6273848;28;20466;-64
2022/06/18 03:14:10;;;;;;;7.20;6.50;;;17.60;99.90;;;;;;6265037;28;20482;-64
2022/06/18 03:17:13;;;;;;;6.40;5.90;;;17.60;99.90;;;;;;6278954;28;20470;-64
2022/06/18 03:20:21;;;;;;;6.70;6.20;;;17.60;99.90;;;;;;6279617;28;20470;-65
2022/06/18 03:23:25;;;;;;;6.63;6.03;;;17.60;99.90;;;;;;6279951;28;20483;-65
2022/06/18 03:26:28;;;;;;;6.93;6.43;;;17.60;99.90;;;;;;6279878;28;20477;-65
2022/06/18 03:29:33;;;;;;;7.27;6.67;;;17.60;99.90;;;;;;6280104;28;20470;-65
2022/06/18 03:32:36;;;;;;;6.47;6.00;;;17.60;99.90;;;;;;6279824;28;20484;-65
2022/06/18 03:35:43;;;;;;;6.80;6.30;;;17.60;99.90;;;;;;6279872;28;20474;-65
2022/06/18 03:38:46;;;;;;;7.47;6.87;;;17.60;99.90;;;;;;6279834;28;20470;-65
2022/06/18 03:41:50;;;;;;;7.73;7.03;;;17.60;99.90;;;;;;6279235;28;20470;-65
2022/06/18 03:44:55;;;;;;;9.13;8.33;;;17.70;99.90;;;;;;6279498;28;20482;-65
2022/06/18 03:47:59;;;;;;;7.57;6.97;;;17.60;99.90;;;;;;6279386;28;20488;-65
2022/06/18 03:51:02;;;;;;;7.43;6.93;;;17.60;99.90;;;;;;6278962;28;20988;-65
2022/06/18 03:54:06;;;;;;;7.93;7.00;;;17.60;99.90;;;;;;6279797;28;20470;-65
2022/06/18 03:57:15;;;;;;;9.63;6.83;;;17.70;99.90;;;;;;6279388;28;20470;-65
2022/06/18 04:00:23;;;;;;;8.27;7.70;;;17.60;99.90;;;;;;6279696;28;20984;-65
2022/06/18 04:03:26;;;;;;;7.63;6.90;;;17.70;99.90;;;;;;6279231;28;20481;-65
2022/06/18 04:06:30;;;;;;;8.00;7.27;;;17.80;99.90;;;;;;6279072;28;20473;-65
2022/06/18 04:09:35;;;;;;;5.90;5.40;;;17.90;99.90;;;;;;6278850;28;20455;-64
2022/06/18 04:12:38;;;;;;;7.57;7.07;;;17.90;99.90;;;;;;6278932;28;20543;-65
2022/06/18 04:15:43;;;;;;;8.03;7.43;;;18.00;99.90;;;;;;6278582;28;20470;-65
2022/06/18 04:18:46;;;;;;;7.80;7.30;;;18.00;99.90;;;;;;6278075;28;20466;-65
2022/06/18 04:21:49;;;;;;;8.00;7.30;;;17.90;99.90;;;;;;6278321;28;20478;-65
2022/06/18 04:24:53;;;;;;;7.23;6.63;;;17.90;99.90;;;;;;6278261;28;20812;-65
2022/06/18 04:27:57;;;;;;;7.57;6.97;;;18.00;99.90;;;;;;6278015;28;20474;-65
2022/06/18 04:31:03;;;;;;;7.47;6.87;;;18.00;99.90;;;;;;6278414;28;20228;-65
2022/06/18 04:34:06;;;;;;;8.20;6.80;;;18.10;99.90;;;;;;6277972;28;20966;-65
2022/06/18 04:37:10;;;;;;;7.20;6.70;;;18.30;99.90;;;;;;6278437;28;20788;-65
2022/06/18 04:40:15;;;;;;;7.53;7.03;;;18.40;99.90;;;;;;6278347;28;20227;-65
2022/06/18 04:43:38;;;;;;;7.60;7.10;;;18.60;99.90;;;;;;6277543;28;20236;-65
2022/06/18 04:46:43;;;;;;;7.37;6.93;;;18.70;99.90;;;;;;6278348;28;20234;-65
2022/06/18 04:49:47;;;;;;;7.10;6.60;;;18.90;99.90;;;;;;6278049;28;20467;-65
2022/06/18 04:52:51;;;;;;;7.90;7.23;;;19.00;99.90;;;;;;6278003;28;20553;-65
2022/06/18 04:55:54;;;;;;;7.90;7.20;;;19.20;99.90;;;;;;6277677;28;20224;-65
2022/06/18 04:58:57;;;;;;;7.77;7.07;;;19.30;99.90;;;;;;6278282;28;20307;-65
2022/06/18 05:02:05;;;;;;;8.07;6.30;;;19.50;99.90;;;;;;6277421;28;20684;-65
2022/06/18 05:05:13;;;;;;;7.27;6.70;;;19.70;99.80;;;;;;6277663;28;20227;-66
2022/06/18 05:08:17;;;;;;;8.17;7.37;;;19.70;99.40;;;;;;6277138;28;20224;-66
2022/06/18 05:11:20;;;;;;;7.83;7.27;;;19.80;99.20;;;;;;6277199;28;20573;-65
2022/06/18 05:14:24;;;;;;;7.20;6.70;;;20.00;99.20;;;;;;6276824;28;20239;-65
2022/06/18 05:17:31;;;;;;;7.00;6.50;;;20.20;98.90;;;;;;6272284;28;20231;-65
2022/06/18 05:20:38;;;;;;;8.10;7.50;;;20.30;98.40;;;;;;6277048;28;20228;-65
2022/06/18 05:23:41;;;;;;;6.73;6.03;;;20.40;98.20;;;;;;6276951;28;20238;-65
2022/06/18 05:26:48;;;;;;;7.60;6.90;;;20.50;98.00;;;;;;6277527;28;20238;-66
2022/06/18 05:29:51;;;;;;;7.00;6.60;;;20.80;97.80;;;;;;6276995;28;20246;-66
2022/06/18 05:32:56;;;;;;;7.63;7.03;;;20.90;97.40;;;;;;6276838;28;20245;-66
2022/06/18 05:35:59;;;;;;;8.47;7.77;;;21.00;97.20;;;;;;6276471;28;20661;-65
2022/06/18 05:39:03;;;;;;;7.27;6.67;;;21.10;97.00;;;;;;6276125;28;20269;-65
2022/06/18 05:42:07;;;;;;;8.13;7.37;;;21.20;96.80;;;;;;6276197;28;20238;-65
2022/06/18 05:45:11;;;;;;;7.70;7.10;;;21.30;96.20;;;;;;6276416;28;20268;-65
2022/06/18 05:48:15;;;;;;;7.83;7.13;;;21.50;96.10;;;;;;6276261;28;20227;-65
2022/06/18 05:51:19;;;;;;;8.03;7.37;;;21.60;95.80;;;;;;6276055;28;20239;-65
2022/06/18 05:54:22;;;;;;;7.70;7.00;;;21.80;95.40;;;;;;6276189;28;20235;-65
2022/06/18 05:57:26;;;;;;;7.27;6.60;;;21.90;94.80;;;;;;6276552;28;20230;-66
2022/06/18 06:00:32;;;;;;;7.63;6.97;;;21.90;94.40;;;;;;6276350;28;20238;-65
2022/06/18 06:03:36;;;;;;;7.10;6.43;;;22.10;94.10;;;;;;6276021;28;20702;-64
2022/06/18 06:06:40;;;;;;;6.60;6.10;;;22.20;93.30;;;;;;6275888;28;20228;-65
2022/06/18 06:13:04;;;;;;;6.40;5.90;;;22.90;92.20;;;;;;6275258;28;20228;-65
2022/06/18 06:16:07;;;;;;;6.17;5.63;;;23.50;91.20;;;;;;6275521;28;20246;-64
2022/06/18 06:19:11;;;;;;;6.63;6.03;;;24.10;90.00;;;;;;6275261;28;20224;-65
2022/06/18 06:22:15;;;;;;;6.33;5.73;;;24.70;87.90;;;;;;6275263;28;20568;-64
2022/06/18 06:25:18;;;;;;;6.63;5.53;;;25.50;82.80;;;;;;6275368;28;20234;-64
2022/06/18 06:28:23;;;;;;;5.00;4.47;;;26.20;79.40;;;;;;6275728;28;20219;-64
2022/06/18 06:31:26;;;;;;;5.43;4.60;;;26.70;74.00;;;;;;6275977;28;20183;-64
2022/06/18 06:34:31;;;;;;;5.13;4.70;;;27.10;71.50;;;;;;6274906;28;20242;-65
2022/06/18 06:37:34;;;;;;;4.90;4.50;;;27.60;68.00;;;;;;6275122;28;20213;-64
2022/06/18 06:40:38;;;;;;;5.33;4.93;;;27.90;65.40;;;;;;6275296;28;20544;-64
2022/06/18 06:43:41;;;;;;;5.10;4.60;;;28.10;65.60;;;;;;6275115;28;20241;-64
2022/06/18 06:46:44;;;;;;;4.47;3.93;;;28.90;63.20;;;;;;6274744;28;20289;-64
2022/06/18 06:49:49;;;;;;;4.27;3.97;;;28.90;60.50;;;;;;6274035;28;20288;-65
2022/06/18 06:52:53;;;;;;;4.13;3.40;;;28.90;58.70;;;;;;6275246;28;20239;-65
2022/06/18 06:59:16;;;;;;;3.63;3.30;;;28.60;58.00;;;;;;6245006;28;20589;-65
2022/06/18 07:02:22;;;;;;;3.90;3.60;;;29.40;56.70;;;;;;6274805;28;20246;-66
2022/06/18 07:05:26;;;;;;;6.13;4.10;;;30.40;54.20;;;;;;6275016;28;20574;-66
2022/06/18 07:08:30;;;;;;;6.83;3.90;;;30.20;53.50;;;;;;6274943;28;20238;-65
2022/06/18 07:11:34;;;;;;;6.33;4.27;;;30.20;54.00;;;;;;6274617;28;20237;-65
2022/06/18 07:14:37;;;;;;;4.30;4.00;;;30.30;53.20;;;;;;6275163;28;20242;-65
2022/06/18 07:17:42;;;;;;;4.23;3.93;;;30.50;52.70;;;;;;6274746;28;20223;-65
2022/06/18 07:20:47;;;;;;;5.28;4.22;;;30.90;51.70;;;;;;6274923;28;20237;-65
2022/06/18 07:23:50;;;;;;;4.15;3.80;;;31.60;50.80;;;;;;6274364;28;20231;-65
2022/06/18 07:26:54;;;;;;;3.15;2.90;;;32.50;49.10;;;;;;6274746;28;20223;-66
2022/06/18 07:29:57;;;;;;;3.50;3.20;;;33.10;46.30;;;;;;6274278;28;20787;-65
2022/06/18 07:33:00;;;;;;;2.85;2.63;;;32.70;46.00;;;;;;6273327;28;20222;-65
2022/06/18 07:36:06;;;;;;;2.97;2.78;;;31.60;46.40;;;;;;6273951;28;20229;-66
2022/06/18 07:39:10;;;;;;;5.40;3.38;;;30.60;47.70;;;;;;6263102;28;20238;-65
2022/06/18 07:42:15;;;;;;;4.28;2.65;;;30.40;48.00;;;;;;6289903;28;20241;-65
2022/06/18 07:45:21;;;;;;;5.90;3.20;;;30.40;47.20;;;;;;6282802;28;20241;-65
2022/06/18 07:48:24;;;;;;;3.47;3.17;;;30.40;48.10;;;;;;6287725;28;20231;-65
2022/06/18 07:51:29;;;;;;;4.87;2.90;;;30.10;48.60;;;;;;6276979;28;20257;-65
2022/06/18 07:54:32;;;;;;;3.13;2.93;;;29.80;48.80;;;;;;6276905;28;20225;-65
2022/06/18 07:57:35;;;;;;;3.00;2.70;;;29.70;48.40;;;;;;6275354;28;20238;-65
2022/06/18 08:00:40;;;;;;;4.50;3.20;;;29.50;48.60;;;;;;6283315;28;20218;-65
2022/06/18 08:03:43;;;;;;;6.60;5.37;;;29.00;49.50;;;;;;6290816;28;20230;-64
2022/06/18 08:06:48;;;;;;;3.47;3.17;;;28.90;49.70;;;;;;6278579;28;20219;-64
2022/06/18 08:09:51;;;;;;;4.73;3.70;;;29.00;50.50;;;;;;6278593;28;20551;-64
2022/06/18 08:12:55;;;;;;;3.90;3.63;;;29.00;51.50;;;;;;6278460;28;20247;-65
2022/06/18 08:15:58;;;;;;;3.77;3.40;;;28.90;51.00;;;;;;6278449;28;20235;-65
2022/06/18 08:19:01;;;;;;;3.03;2.83;;;29.10;50.20;;;;;;6294759;28;20218;-64
2022/06/18 08:22:06;;;;;;;3.93;3.53;;;28.90;49.70;;;;;;6277102;28;20580;-64
2022/06/18 08:25:11;;;;;;;4.87;3.33;;;29.10;49.80;;;;;;6288595;28;20231;-65
2022/06/18 08:28:15;;;;;;;4.57;3.40;;;29.30;50.30;;;;;;6291108;28;20245;-65
2022/06/18 08:31:18;;;;;;;3.40;3.20;;;29.40;49.80;;;;;;6293285;28;20230;-65
2022/06/18 08:34:23;;;;;;;3.93;3.50;;;28.90;49.90;;;;;;6299116;28;20584;-65
2022/06/18 08:37:34;;;;;;;5.30;3.80;;;28.40;51.10;;;;;;6264555;28;20196;-65
2022/06/18 08:40:54;;;;;;;4.50;3.50;;;28.40;51.80;;;;;;6286373;28;20195;-65
2022/06/18 08:44:27;;;;;;;4.10;3.60;;;28.30;52.40;;;;;;6263168;28;20242;-65
2022/06/18 08:47:45;;;;;;;3.27;3.07;;;28.00;52.80;;;;;;6284347;28;20750;-65
2022/06/18 08:50:57;;;;;;;3.87;3.57;;;27.60;53.70;;;;;;6283848;28;20556;-65
2022/06/18 08:54:23;;;;;;;3.80;3.50;;;27.70;53.40;;;;;;6290717;28;20223;-66
2022/06/18 08:57:34;;;;;;;4.20;3.40;;;27.70;53.80;;;;;;6279866;28;20242;-66
2022/06/18 09:00:45;;;;;;;6.63;4.67;;;27.90;54.30;;;;;;6285234;28;20539;-65
2022/06/18 09:04:02;;;;;;;4.30;3.93;;;28.00;53.50;;;;;;6287963;28;20228;-65
2022/06/18 09:07:36;;;;;;;4.27;3.97;;;28.10;53.30;;;;;;6292649;28;20664;-65
2022/06/18 09:10:56;;;;;;;5.33;4.83;;;28.10;52.70;;;;;;6287781;28;20635;-66
2022/06/18 09:14:04;;;;;;;5.20;4.80;;;28.10;53.60;;;;;;6282766;28;20223;-66
2022/06/18 09:17:15;;;;;;;4.37;3.90;;;28.30;53.70;;;;;;6275825;28;20667;-65
2022/06/18 09:20:23;;;;;;;5.10;4.70;;;28.30;53.40;;;;;;6277587;28;20242;-65
2022/06/18 09:23:29;;;;;;;4.53;4.13;;;28.20;53.80;;;;;;6276809;28;20616;-67
2022/06/18 09:26:39;;;;;;;4.60;4.20;;;28.10;53.60;;;;;;6280202;28;20651;-66
2022/06/18 09:29:47;;;;;;;4.97;4.57;;;28.10;53.30;;;;;;6276722;28;20231;-64
2022/06/18 09:32:55;;;;;;;4.70;4.30;;;28.10;54.00;;;;;;6295569;28;20238;-64
2022/06/18 09:36:01;;;;;;;4.93;4.50;;;27.90;54.50;;;;;;6288082;28;20231;-65
2022/06/18 09:39:11;;;;;;;4.13;3.70;;;28.00;54.90;;;;;;6291025;28;20237;-65
2022/06/18 09:42:21;;;;;;;5.50;5.00;;;28.20;54.90;;;;;;6285578;28;20227;-64
2022/06/18 09:45:29;;;;;;;4.40;4.07;;;28.20;53.90;;;;;;6293649;28;20230;-65
2022/06/18 09:48:33;;;;;;;4.43;3.83;;;28.20;53.70;;;;;;6283425;28;20231;-64
2022/06/18 09:51:42;;;;;;;4.23;3.93;;;27.70;54.80;;;;;;6294396;28;20226;-64
2022/06/18 09:54:51;;;;;;;4.20;3.90;;;27.70;54.80;;;;;;6280620;28;20247;-65
2022/06/18 09:57:59;;;;;;;4.07;3.73;;;27.80;54.70;;;;;;6275913;28;20234;-65
2022/06/18 10:01:04;;;;;;;5.20;3.97;;;28.00;54.60;;;;;;6298067;28;20230;-65
2022/06/18 10:07:33;;;;;;;4.30;3.90;;;27.90;53.80;;;;;;6272892;28;20230;-64
2022/06/18 10:10:37;;;;;;;4.70;4.30;;;27.70;54.30;;;;;;6278472;28;20187;-64
2022/06/18 10:13:47;;;;;;;4.00;3.70;;;27.30;54.30;;;;;;6297809;28;20234;-63
2022/06/18 10:17:11;;;;;;;4.30;3.90;;;26.90;56.20;;;;;;6279726;28;20566;-64
2022/06/18 10:20:24;;;;;;;4.27;3.87;;;26.80;55.60;;;;;;6292193;28;20556;-63
2022/06/18 10:23:46;;;;;;;3.80;3.53;;;27.10;54.80;;;;;;6274750;28;20235;-64
2022/06/18 10:26:59;;;;;;;4.63;4.20;;;27.40;54.40;;;;;;6287801;28;20559;-64
2022/06/18 10:30:09;;;;;;;5.00;4.10;;;27.60;54.00;;;;;;6286292;28;20242;-63
2022/06/18 10:33:22;;;;;;;4.07;3.60;;;27.90;54.00;;;;;;6275123;28;20238;-64
2022/06/18 10:36:34;;;;;;;4.23;3.77;;;28.00;53.30;;;;;;6267094;28;20338;-64
2022/06/18 10:39:48;;;;;;;3.93;3.63;;;28.10;53.20;;;;;;6275416;28;20615;-64
2022/06/18 10:43:06;;;;;;;3.90;3.60;;;28.20;52.80;;;;;;6274901;28;20545;-66
2022/06/18 10:46:13;;;;;;;4.47;4.07;;;28.20;52.50;;;;;;6275104;28;20238;-67
2022/06/18 10:49:25;;;;;;;4.30;4.00;;;28.40;52.70;;;;;;6275031;28;20231;-66
2022/06/18 10:52:34;;;;;;;3.47;3.23;;;28.40;52.00;;;;;;6274953;28;20541;-65
2022/06/18 10:55:37;;;;;;;4.53;3.90;;;28.00;53.00;;;;;;6274659;28;20490;-66
2022/06/18 10:58:47;;;;;;;4.17;3.87;;;28.30;53.40;;;;;;6274940;28;20233;-66
2022/06/18 11:01:52;;;;;;;4.37;3.60;;;28.50;51.90;;;;;;6275435;28;20231;-66
2022/06/18 11:04:59;;;;;;;4.37;3.97;;;28.60;52.10;;;;;;6285559;28;20238;-66
2022/06/18 11:08:05;;;;;;;4.07;3.77;;;28.80;51.80;;;;;;6283373;28;20220;-66
2022/06/18 11:11:14;;;;;;;5.30;4.07;;;28.90;51.90;;;;;;6279683;28;20215;-66
2022/06/18 11:14:18;;;;;;;3.63;3.33;;;28.80;54.30;;;;;;6278575;28;20237;-67
2022/06/18 11:17:30;;;;;;;4.30;4.00;;;28.60;53.70;;;;;;6285468;28;20227;-65
2022/06/18 11:20:33;;;;;;;4.07;3.67;;;28.80;52.60;;;;;;6274581;28;20234;-66
2022/06/18 11:23:38;;;;;;;6.43;4.27;;;28.60;53.90;;;;;;6274807;28;20314;-64
2022/06/18 11:27:05;;;;;;;4.37;3.70;;;28.90;53.10;;;;;;6274578;28;20227;-65
2022/06/18 11:30:18;;;;;;;3.70;3.50;;;28.90;52.10;;;;;;6274807;28;20245;-66
2022/06/18 11:33:29;;;;;;;4.13;3.73;;;29.00;52.70;;;;;;6274307;28;20694;-66
2022/06/18 11:36:46;;;;;;;3.70;3.50;;;29.00;52.10;;;;;;6276124;28;20238;-66
2022/06/18 11:39:55;;;;;;;4.80;3.93;;;29.10;53.30;;;;;;6279403;28;20241;-67
2022/06/18 11:43:03;;;;;;;4.53;4.13;;;29.00;52.90;;;;;;6275099;28;20344;-66
2022/06/18 11:46:14;;;;;;;3.97;3.63;;;29.20;53.50;;;;;;6279112;28;20673;-66
2022/06/18 11:49:24;;;;;;;4.13;3.73;;;29.40;53.00;;;;;;6279153;28;20694;-66
2022/06/18 11:52:36;;;;;;;4.20;3.77;;;29.40;52.90;;;;;;6280597;28;20242;-65
2022/06/18 11:55:45;;;;;;;4.60;4.20;;;29.50;53.00;;;;;;6301660;28;20209;-66
2022/06/18 11:58:53;;;;;;;4.17;3.87;;;29.40;51.80;;;;;;6283050;28;20237;-67
2022/06/18 12:02:01;;;;;;;4.50;4.10;;;29.40;51.80;;;;;;6288437;28;20227;-66
2022/06/18 12:05:12;;;;;;;3.97;3.67;;;29.50;52.40;;;;;;6273102;28;20222;-66
2022/06/18 12:08:19;;;;;;;3.30;3.10;;;29.50;52.40;;;;;;6287208;28;20227;-66
2022/06/18 12:11:40;;;;;;;4.57;3.63;;;29.60;53.00;;;;;;6279121;28;20551;-65
2022/06/18 12:14:52;;;;;;;4.53;4.23;;;29.40;54.20;;;;;;6278738;28;20219;-65
2022/06/18 12:18:00;;;;;;;4.70;4.30;;;29.30;53.50;;;;;;6270900;28;20223;-66
2022/06/18 12:21:16;;;;;;;4.50;4.10;;;29.20;53.30;;;;;;6290377;28;20238;-67
2022/06/18 12:24:30;;;;;;;4.33;3.93;;;29.20;53.70;;;;;;6286980;28;20247;-66
2022/06/18 12:27:43;;;;;;;4.20;3.80;;;29.20;52.90;;;;;;6296693;28;20227;-66
2022/06/18 12:30:51;;;;;;;4.10;3.80;;;29.30;52.60;;;;;;6282934;28;20698;-67
2022/06/18 12:34:02;;;;;;;4.50;4.20;;;29.30;54.30;;;;;;6278156;28;20242;-66
2022/06/18 12:37:17;;;;;;;3.73;3.50;;;29.40;53.60;;;;;;6291258;28;20239;-66
2022/06/18 12:40:32;;;;;;;4.80;4.40;;;29.50;53.40;;;;;;6268476;28;20304;-67
2022/06/18 12:43:44;;;;;;;4.20;3.90;;;29.60;54.00;;;;;;6261673;28;20223;-66
2022/06/18 12:46:54;;;;;;;3.70;3.50;;;29.50;53.50;;;;;;6276220;28;20242;-66
2022/06/18 12:50:06;;;;;;;5.87;4.87;;;29.40;53.30;;;;;;6275801;28;20231;-66
2022/06/18 12:53:31;;;;;;;5.33;4.87;;;29.20;53.90;;;;;;6276937;28;20311;-66
2022/06/18 12:56:38;;;;;;;4.70;4.27;;;29.00;54.30;;;;;;6277780;28;20253;-66
2022/06/18 12:59:48;;;;;;;4.33;4.03;;;29.00;54.50;;;;;;6302606;28;20722;-66
2022/06/18 13:03:08;;;;;;;4.90;4.13;;;29.20;54.10;;;;;;6301907;28;20234;-66
2022/06/18 13:06:20;;;;;;;4.63;4.30;;;29.10;53.70;;;;;;6301505;28;20777;-66
2022/06/18 13:09:34;;;;;;;6.40;4.47;;;29.20;54.00;;;;;;6301820;28;20528;-66
2022/06/18 13:12:51;;;;;;;4.87;4.00;;;29.30;53.70;;;;;;6301772;28;20230;-66
2022/06/18 13:16:00;;;;;;;4.20;3.80;;;29.20;54.40;;;;;;6301789;28;20222;-67
2022/06/18 13:19:09;;;;;;;7.03;4.50;;;29.30;53.90;;;;;;6301588;28;20226;-66
2022/06/18 13:22:13;;;;;;;4.50;4.10;;;29.30;54.70;;;;;;6301410;28;20231;-66
2022/06/18 13:29:00;;;;;;;4.33;4.03;;;29.30;54.40;;;;;;6224883;28;20224;-66
2022/06/18 13:32:12;;;;;;;4.47;3.93;;;29.10;54.10;;;;;;6281896;28;20570;-64
2022/06/18 13:35:26;;;;;;;4.23;3.93;;;29.00;54.20;;;;;;6301625;28;20233;-65
2022/06/18 13:38:37;;;;;;;4.10;3.80;;;29.00;54.20;;;;;;6298658;28;20249;-66
2022/06/18 13:41:47;;;;;;;4.47;4.17;;;29.10;54.30;;;;;;6289184;28;20223;-65
2022/06/18 13:45:20;;;;;;;4.30;4.00;;;29.10;54.20;;;;;;6275841;28;20241;-65
2022/06/18 13:48:47;;;;;;;4.37;4.07;;;29.10;54.80;;;;;;6271869;28;20272;-65
2022/06/18 13:51:57;;;;;;;4.80;4.40;;;29.20;55.00;;;;;;6296306;28;20237;-64
2022/06/18 13:55:01;;;;;;;4.50;4.10;;;29.00;54.20;;;;;;6301036;28;20223;-64
2022/06/18 13:58:17;;;;;;;4.93;4.63;;;29.10;54.90;;;;;;6300381;28;20230;-66
2022/06/18 14:01:23;;;;;;;5.00;4.63;;;29.00;55.60;;;;;;6300175;28;20227;-64
2022/06/18 14:04:32;;;;;;;5.77;4.70;;;28.80;55.70;;;;;;6300556;28;20223;-66
2022/06/18 14:07:42;;;;;;;4.77;4.47;;;28.70;55.60;;;;;;6300576;28;20222;-65
2022/06/18 14:10:46;;;;;;;4.90;4.50;;;28.70;55.90;;;;;;6300464;28;20218;-65
2022/06/18 14:13:53;;;;;;;4.70;4.30;;;28.70;55.90;;;;;;6300914;28;20234;-65
2022/06/18 14:17:02;;;;;;;4.20;3.77;;;28.70;55.90;;;;;;6300818;28;20228;-65
2022/06/18 14:20:07;;;;;;;4.50;4.20;;;28.80;55.90;;;;;;6300130;28;20689;-66
2022/06/18 14:23:29;;;;;;;4.70;4.40;;;28.90;55.60;;;;;;6300345;28;20238;-66
2022/06/18 14:26:42;;;;;;;6.00;4.50;;;29.00;56.00;;;;;;6300160;28;20231;-66
2022/06/18 14:29:46;;;;;;;4.70;4.33;;;29.10;55.80;;;;;;6300018;28;20231;-68
2022/06/18 14:32:59;;;;;;;4.30;4.00;;;28.90;56.00;;;;;;6299852;28;20230;-66
2022/06/18 14:36:12;;;;;;;4.10;3.70;;;29.00;56.10;;;;;;6300182;28;20223;-66
2022/06/18 14:39:22;;;;;;;5.60;4.30;;;28.90;56.00;;;;;;6284177;28;20241;-66
2022/06/18 14:42:46;;;;;;;4.00;3.70;;;28.70;56.40;;;;;;6274906;28;20246;-65
2022/06/18 14:45:59;;;;;;;4.03;3.73;;;28.70;56.40;;;;;;6274832;28;20222;-65
2022/06/18 14:49:39;;;;;;;4.90;4.50;;;28.80;56.10;;;;;;6274706;28;20227;-65
2022/06/18 14:52:56;;;;;;;5.00;4.57;;;28.80;55.90;;;;;;6276135;28;20223;-65
2022/06/18 14:56:13;;;;;;;4.40;3.90;;;28.80;56.30;;;;;;6299426;28;20237;-65
2022/06/18 14:59:34;;;;;;;4.10;3.80;;;28.80;55.90;;;;;;6299837;28;20245;-65
2022/06/18 15:02:44;;;;;;;4.07;3.77;;;28.60;55.90;;;;;;6299109;28;20237;-66
2022/06/18 15:05:55;;;;;;;4.57;4.17;;;28.70;56.10;;;;;;6287850;28;20231;-67
2022/06/18 15:09:00;;;;;;;7.50;4.00;;;28.40;56.30;;;;;;6284808;28;20223;-67
2022/06/18 15:12:10;;;;;;;3.53;3.27;;;28.00;57.20;;;;;;6294169;28;20314;-65
2022/06/18 15:15:20;;;;;;;4.00;3.70;;;28.00;57.20;;;;;;6278970;28;20227;-66
2022/06/18 15:18:35;;;;;;;4.23;3.90;;;28.00;57.30;;;;;;6269835;28;20234;-65
2022/06/18 15:21:47;;;;;;;4.40;4.10;;;28.20;57.20;;;;;;6273423;28;20609;-65
2022/06/18 15:28:19;;;;;;;5.73;4.10;;;28.00;57.00;;;;;;6275764;28;20231;-65
2022/06/18 15:31:32;;;;;;;4.93;4.03;;;28.10;56.90;;;;;;6273282;28;20231;-65
2022/06/18 15:34:37;;;;;;;4.67;4.20;;;28.20;56.70;;;;;;6273543;28;20242;-65
2022/06/18 15:37:48;;;;;;;3.83;3.53;;;28.30;56.50;;;;;;6273929;28;20211;-65
2022/06/18 15:40:58;;;;;;;4.23;3.63;;;28.20;56.60;;;;;;6279359;28;20231;-65
2022/06/18 15:44:01;;;;;;;4.03;3.70;;;28.30;56.20;;;;;;6275589;28;20241;-65
2022/06/18 15:47:07;;;;;;;4.23;3.93;;;28.00;56.30;;;;;;6298675;28;20237;-65
2022/06/18 15:50:20;;;;;;;4.53;3.80;;;28.00;56.30;;;;;;6298790;28;20237;-65
2022/06/18 15:53:26;;;;;;;4.80;4.30;;;28.00;56.50;;;;;;6289716;28;20245;-65
2022/06/18 15:56:34;;;;;;;4.07;3.67;;;28.20;56.30;;;;;;6298536;28;20237;-65
2022/06/18 15:59:37;;;;;;;4.10;3.60;;;28.20;56.00;;;;;;6298632;28;20576;-64
2022/06/18 16:02:43;;;;;;;5.00;4.60;;;28.10;56.20;;;;;;6298625;28;20300;-65
2022/06/18 16:05:50;;;;;;;3.90;3.60;;;28.10;56.40;;;;;;6298354;28;20264;-65
2022/06/18 16:09:04;;;;;;;4.10;3.80;;;28.10;56.80;;;;;;6298919;28;20227;-66
2022/06/18 16:12:16;;;;;;;4.63;4.23;;;28.20;57.10;;;;;;6275731;28;20238;-66
2022/06/18 16:15:41;;;;;;;4.20;3.90;;;28.00;56.90;;;;;;6273859;28;20231;-67
2022/06/18 16:18:44;;;;;;;3.97;3.67;;;27.90;57.60;;;;;;6281935;28;20229;-66
2022/06/18 16:21:52;;;;;;;4.73;4.20;;;27.60;58.30;;;;;;6276527;28;20246;-66
2022/06/18 16:24:57;;;;;;;3.57;3.27;;;27.70;58.10;;;;;;6286435;28;20239;-65
2022/06/18 16:28:02;;;;;;;4.30;4.00;;;27.80;58.40;;;;;;6296135;28;20215;-64
2022/06/18 16:31:08;;;;;;;4.10;3.70;;;27.90;57.60;;;;;;6280732;28;20227;-65
2022/06/18 16:34:13;;;;;;;3.67;3.30;;;28.00;57.50;;;;;;6277855;28;20828;-65
2022/06/18 16:37:19;;;;;;;4.10;3.70;;;28.10;57.20;;;;;;6301801;28;20269;-65
2022/06/18 16:40:24;;;;;;;4.73;4.33;;;28.10;57.10;;;;;;6290010;28;20246;-64